sensor_id;sensor_type;location;lat;lon;timestamp;temperature;humidity
71184;DHT22;58887;51.980;4.464;2022-10-23T00:03:41;14.12;83.30
71184;DHT22;58887;51.980;4.464;2022-10-23T00:06:07;14.08;83.43
71184;DHT22;58887;51.980;4.464;2022-10-23T00:08:33;14.11;83.66
71184;DHT22;58887;51.980;4.464;2022-10-23T00:10:59;14.11;83.89
71184;DHT22;58887;51.980;4.464;2022-10-23T00:13:24;14.16;83.89
71184;DHT22;58887;51.980;4.464;2022-10-23T00:15:50;14.24;83.88
71184;DHT22;58887;51.980;4.464;2022-10-23T00:18:15;14.28;83.59
71184;DHT22;58887;51.980;4.464;2022-10-23T00:20:41;14.30;83.46
71184;DHT22;58887;51.980;4.464;2022-10-23T00:23:06;14.26;83.49
71184;DHT22;58887;51.980;4.464;2022-10-23T00:25:31;14.28;83.74
71184;DHT22;58887;51.980;4.464;2022-10-23T00:27:58;14.28;83.55
71184;DHT22;58887;51.980;4.464;2022-10-23T00:30:24;14.22;83.47
71184;DHT22;58887;51.980;4.464;2022-10-23T00:32:49;14.24;83.72
71184;DHT22;58887;51.980;4.464;2022-10-23T00:35:15;14.26;83.54
71184;DHT22;58887;51.980;4.464;2022-10-23T00:37:41;14.26;83.53
71184;DHT22;58887;51.980;4.464;2022-10-23T00:40:07;14.24;83.39
71184;DHT22;58887;51.980;4.464;2022-10-23T00:42:32;14.21;83.48
71184;DHT22;58887;51.980;4.464;2022-10-23T00:45:21;14.19;83.46
71184;DHT22;58887;51.980;4.464;2022-10-23T00:47:48;14.12;83.39
71184;DHT22;58887;51.980;4.464;2022-10-23T00:50:14;14.14;83.40
71184;DHT22;58887;51.980;4.464;2022-10-23T00:52:45;14.14;83.39
71184;DHT22;58887;51.980;4.464;2022-10-23T00:55:12;14.14;83.59
71184;DHT22;58887;51.980;4.464;2022-10-23T00:57:42;14.12;83.45
71184;DHT22;58887;51.980;4.464;2022-10-23T01:00:13;14.08;83.38
71184;DHT22;58887;51.980;4.464;2022-10-23T01:02:38;14.11;83.42
71184;DHT22;58887;51.980;4.464;2022-10-23T01:05:04;14.11;83.40
71184;DHT22;58887;51.980;4.464;2022-10-23T01:08:25;14.16;83.84
71184;DHT22;58887;51.980;4.464;2022-10-23T01:10:40;14.11;83.60
71184;DHT22;58887;51.980;4.464;2022-10-23T01:13:26;14.05;83.79
71184;DHT22;58887;51.980;4.464;2022-10-23T01:16:04;14.00;83.79
71184;DHT22;58887;51.980;4.464;2022-10-23T01:18:43;14.04;84.17
71184;DHT22;58887;51.980;4.464;2022-10-23T01:21:22;14.04;84.11
71184;DHT22;58887;51.980;4.464;2022-10-23T01:29:20;14.05;83.86
71184;DHT22;58887;51.980;4.464;2022-10-23T01:32:07;14.02;83.97
71184;DHT22;58887;51.980;4.464;2022-10-23T01:34:48;14.04;84.48
71184;DHT22;58887;51.980;4.464;2022-10-23T01:37:21;14.02;84.61
71184;DHT22;58887;51.980;4.464;2022-10-23T01:39:52;14.06;84.42
71184;DHT22;58887;51.980;4.464;2022-10-23T01:42:25;14.09;84.55
71184;DHT22;58887;51.980;4.464;2022-10-23T01:44:59;14.09;84.55
71184;DHT22;58887;51.980;4.464;2022-10-23T01:47:30;14.12;84.51
71184;DHT22;58887;51.980;4.464;2022-10-23T01:50:00;14.11;84.50
71184;DHT22;58887;51.980;4.464;2022-10-23T01:52:26;14.09;84.55
71184;DHT22;58887;51.980;4.464;2022-10-23T01:54:57;14.15;84.57
71184;DHT22;58887;51.980;4.464;2022-10-23T01:57:27;14.16;84.50
71184;DHT22;58887;51.980;4.464;2022-10-23T02:00:12;14.18;84.53
71184;DHT22;58887;51.980;4.464;2022-10-23T02:02:39;14.12;84.43
71184;DHT22;58887;51.980;4.464;2022-10-23T02:05:11;14.14;84.29
71184;DHT22;58887;51.980;4.464;2022-10-23T02:07:38;14.12;84.26
71184;DHT22;58887;51.980;4.464;2022-10-23T02:10:06;14.06;84.13
71184;DHT22;58887;51.980;4.464;2022-10-23T02:12:43;14.04;84.04
71184;DHT22;58887;51.980;4.464;2022-10-23T02:23:35;14.12;84.37
71184;DHT22;58887;51.980;4.464;2022-10-23T02:25:53;14.14;84.61
71184;DHT22;58887;51.980;4.464;2022-10-23T02:28:36;14.14;84.69
71184;DHT22;58887;51.980;4.464;2022-10-23T02:31:08;14.06;84.89
71184;DHT22;58887;51.980;4.464;2022-10-23T02:33:34;14.11;84.77
71184;DHT22;58887;51.980;4.464;2022-10-23T02:36:00;14.14;84.88
71184;DHT22;58887;51.980;4.464;2022-10-23T02:41:00;14.11;84.50
71184;DHT22;58887;51.980;4.464;2022-10-23T02:43:36;14.06;84.52
71184;DHT22;58887;51.980;4.464;2022-10-23T02:46:12;14.05;84.71
71184;DHT22;58887;51.980;4.464;2022-10-23T02:48:47;14.08;84.50
71184;DHT22;58887;51.980;4.464;2022-10-23T02:54:12;14.08;84.51
71184;DHT22;58887;51.980;4.464;2022-10-23T02:56:52;14.05;84.50
71184;DHT22;58887;51.980;4.464;2022-10-23T02:59:27;14.05;84.67
71184;DHT22;58887;51.980;4.464;2022-10-23T03:04:41;14.14;84.58
71184;DHT22;58887;51.980;4.464;2022-10-23T03:07:17;14.15;84.65
71184;DHT22;58887;51.980;4.464;2022-10-23T03:09:44;14.14;84.76
71184;DHT22;58887;51.980;4.464;2022-10-23T03:12:09;14.12;84.69
71184;DHT22;58887;51.980;4.464;2022-10-23T03:14:35;14.16;84.71
71184;DHT22;58887;51.980;4.464;2022-10-23T03:17:00;14.14;84.77
71184;DHT22;58887;51.980;4.464;2022-10-23T03:19:26;14.12;84.76
71184;DHT22;58887;51.980;4.464;2022-10-23T03:21:51;14.12;84.67
71184;DHT22;58887;51.980;4.464;2022-10-23T03:24:17;14.12;84.57
71184;DHT22;58887;51.980;4.464;2022-10-23T03:26:42;14.15;84.62
71184;DHT22;58887;51.980;4.464;2022-10-23T03:29:08;14.14;84.63
71184;DHT22;58887;51.980;4.464;2022-10-23T03:31:33;14.12;84.64
71184;DHT22;58887;51.980;4.464;2022-10-23T03:33:58;14.06;84.49
71184;DHT22;58887;51.980;4.464;2022-10-23T03:36:24;14.02;84.49
71184;DHT22;58887;51.980;4.464;2022-10-23T03:38:50;14.01;84.47
71184;DHT22;58887;51.980;4.464;2022-10-23T03:41:15;13.98;84.44
71184;DHT22;58887;51.980;4.464;2022-10-23T03:43:41;13.98;84.42
71184;DHT22;58887;51.980;4.464;2022-10-23T03:46:06;13.97;84.34
71184;DHT22;58887;51.980;4.464;2022-10-23T03:48:36;13.92;84.33
71184;DHT22;58887;51.980;4.464;2022-10-23T03:51:03;13.95;84.40
71184;DHT22;58887;51.980;4.464;2022-10-23T03:53:29;13.92;84.56
71184;DHT22;58887;51.980;4.464;2022-10-23T03:55:54;13.91;84.51
71184;DHT22;58887;51.980;4.464;2022-10-23T03:58:20;13.88;84.52
71184;DHT22;58887;51.980;4.464;2022-10-23T04:00:45;13.85;84.77
71184;DHT22;58887;51.980;4.464;2022-10-23T04:03:11;13.82;84.77
71184;DHT22;58887;51.980;4.464;2022-10-23T04:05:36;13.82;84.74
71184;DHT22;58887;51.980;4.464;2022-10-23T04:08:02;13.78;84.65
71184;DHT22;58887;51.980;4.464;2022-10-23T04:10:27;13.82;84.58
71184;DHT22;58887;51.980;4.464;2022-10-23T04:12:53;13.78;84.59
71184;DHT22;58887;51.980;4.464;2022-10-23T04:15:18;13.78;84.62
71184;DHT22;58887;51.980;4.464;2022-10-23T04:17:44;13.85;84.66
71184;DHT22;58887;51.980;4.464;2022-10-23T04:20:09;13.84;84.52
71184;DHT22;58887;51.980;4.464;2022-10-23T04:22:34;13.77;84.53
71184;DHT22;58887;51.980;4.464;2022-10-23T04:25:00;13.73;84.62
71184;DHT22;58887;51.980;4.464;2022-10-23T04:27:25;13.67;84.70
71184;DHT22;58887;51.980;4.464;2022-10-23T04:29:51;13.71;84.81
71184;DHT22;58887;51.980;4.464;2022-10-23T04:32:16;13.70;84.56
71184;DHT22;58887;51.980;4.464;2022-10-23T04:34:42;13.67;84.69
71184;DHT22;58887;51.980;4.464;2022-10-23T04:37:07;13.67;84.71
71184;DHT22;58887;51.980;4.464;2022-10-23T04:39:32;13.67;84.46
71184;DHT22;58887;51.980;4.464;2022-10-23T04:41:58;13.74;84.68
71184;DHT22;58887;51.980;4.464;2022-10-23T04:44:23;13.74;84.61
71184;DHT22;58887;51.980;4.464;2022-10-23T04:46:49;13.78;84.64
71184;DHT22;58887;51.980;4.464;2022-10-23T04:49:14;13.87;84.69
71184;DHT22;58887;51.980;4.464;2022-10-23T04:51:40;13.85;84.50
71184;DHT22;58887;51.980;4.464;2022-10-23T04:54:05;13.89;84.49
71184;DHT22;58887;51.980;4.464;2022-10-23T04:56:30;13.88;84.66
71184;DHT22;58887;51.980;4.464;2022-10-23T04:58:56;13.91;84.72
71184;DHT22;58887;51.980;4.464;2022-10-23T05:01:21;13.89;84.94
71184;DHT22;58887;51.980;4.464;2022-10-23T05:03:47;13.91;85.00
71184;DHT22;58887;51.980;4.464;2022-10-23T05:06:12;13.97;85.07
71184;DHT22;58887;51.980;4.464;2022-10-23T05:08:38;14.01;84.93
71184;DHT22;58887;51.980;4.464;2022-10-23T05:11:03;14.01;84.80
71184;DHT22;58887;51.980;4.464;2022-10-23T05:13:29;14.04;84.65
71184;DHT22;58887;51.980;4.464;2022-10-23T05:15:57;14.05;84.76
71184;DHT22;58887;51.980;4.464;2022-10-23T05:18:25;14.01;85.04
71184;DHT22;58887;51.980;4.464;2022-10-23T05:21:17;14.09;85.11
71184;DHT22;58887;51.980;4.464;2022-10-23T05:23:42;14.06;84.97
71184;DHT22;58887;51.980;4.464;2022-10-23T05:26:08;14.12;85.04
71184;DHT22;58887;51.980;4.464;2022-10-23T05:28:34;14.15;84.85
71184;DHT22;58887;51.980;4.464;2022-10-23T05:31:03;14.16;84.84
71184;DHT22;58887;51.980;4.464;2022-10-23T05:33:30;14.16;84.81
71184;DHT22;58887;51.980;4.464;2022-10-23T05:35:57;14.15;84.68
71184;DHT22;58887;51.980;4.464;2022-10-23T05:38:25;14.14;84.54
71184;DHT22;58887;51.980;4.464;2022-10-23T05:40:52;14.14;84.61
71184;DHT22;58887;51.980;4.464;2022-10-23T05:43:18;14.15;84.60
71184;DHT22;58887;51.980;4.464;2022-10-23T05:45:43;14.12;84.58
71184;DHT22;58887;51.980;4.464;2022-10-23T05:48:09;14.11;84.50
71184;DHT22;58887;51.980;4.464;2022-10-23T05:50:35;14.08;84.42
71184;DHT22;58887;51.980;4.464;2022-10-23T05:53:01;14.11;84.37
71184;DHT22;58887;51.980;4.464;2022-10-23T05:55:26;14.09;84.24
71184;DHT22;58887;51.980;4.464;2022-10-23T05:57:52;14.12;84.19
71184;DHT22;58887;51.980;4.464;2022-10-23T06:00:17;14.08;84.57
71184;DHT22;58887;51.980;4.464;2022-10-23T06:02:43;14.12;84.57
71184;DHT22;58887;51.980;4.464;2022-10-23T06:05:08;14.11;84.45
71184;DHT22;58887;51.980;4.464;2022-10-23T06:07:34;14.11;84.29
71184;DHT22;58887;51.980;4.464;2022-10-23T06:10:00;14.09;84.31
71184;DHT22;58887;51.980;4.464;2022-10-23T06:12:25;14.09;84.30
71184;DHT22;58887;51.980;4.464;2022-10-23T06:14:51;14.12;84.22
71184;DHT22;58887;51.980;4.464;2022-10-23T06:17:16;14.12;84.30
71184;DHT22;58887;51.980;4.464;2022-10-23T06:19:45;14.09;84.10
71184;DHT22;58887;51.980;4.464;2022-10-23T06:22:10;14.09;84.06
71184;DHT22;58887;51.980;4.464;2022-10-23T06:24:36;14.15;84.24
71184;DHT22;58887;51.980;4.464;2022-10-23T06:27:01;14.09;84.62
71184;DHT22;58887;51.980;4.464;2022-10-23T06:29:27;14.12;84.88
71184;DHT22;58887;51.980;4.464;2022-10-23T06:31:52;14.11;84.79
71184;DHT22;58887;51.980;4.464;2022-10-23T06:34:18;14.15;84.81
71184;DHT22;58887;51.980;4.464;2022-10-23T06:36:43;14.11;85.03
71184;DHT22;58887;51.980;4.464;2022-10-23T06:39:09;14.16;84.91
71184;DHT22;58887;51.980;4.464;2022-10-23T06:41:34;14.15;84.92
71184;DHT22;58887;51.980;4.464;2022-10-23T06:44:00;14.18;84.91
71184;DHT22;58887;51.980;4.464;2022-10-23T06:46:26;14.22;84.69
71184;DHT22;58887;51.980;4.464;2022-10-23T06:48:54;14.25;84.73
71184;DHT22;58887;51.980;4.464;2022-10-23T06:51:19;14.26;84.83
71184;DHT22;58887;51.980;4.464;2022-10-23T06:53:46;14.28;84.88
71184;DHT22;58887;51.980;4.464;2022-10-23T06:56:12;14.29;84.91
71184;DHT22;58887;51.980;4.464;2022-10-23T06:58:38;14.32;84.99
71184;DHT22;58887;51.980;4.464;2022-10-23T07:01:07;14.36;84.89
71184;DHT22;58887;51.980;4.464;2022-10-23T07:03:33;14.39;84.89
71184;DHT22;58887;51.980;4.464;2022-10-23T07:06:04;14.37;84.90
71184;DHT22;58887;51.980;4.464;2022-10-23T07:08:30;14.45;84.77
71184;DHT22;58887;51.980;4.464;2022-10-23T07:10:55;14.47;84.80
71184;DHT22;58887;51.980;4.464;2022-10-23T07:13:21;14.46;84.68
71184;DHT22;58887;51.980;4.464;2022-10-23T07:15:49;14.50;84.71
71184;DHT22;58887;51.980;4.464;2022-10-23T07:18:15;14.53;84.68
71184;DHT22;58887;51.980;4.464;2022-10-23T07:20:41;14.57;84.57
71184;DHT22;58887;51.980;4.464;2022-10-23T07:23:10;14.63;84.45
71184;DHT22;58887;51.980;4.464;2022-10-23T07:25:36;14.64;84.27
71184;DHT22;58887;51.980;4.464;2022-10-23T07:28:03;14.70;84.32
71184;DHT22;58887;51.980;4.464;2022-10-23T07:30:29;14.80;84.08
71184;DHT22;58887;51.980;4.464;2022-10-23T07:32:54;14.60;84.63
71184;DHT22;58887;51.980;4.464;2022-10-23T07:35:20;14.74;84.37
71184;DHT22;58887;51.980;4.464;2022-10-23T07:37:45;14.77;84.20
71184;DHT22;58887;51.980;4.464;2022-10-23T07:40:11;14.80;84.29
71184;DHT22;58887;51.980;4.464;2022-10-23T07:42:37;14.90;83.95
71184;DHT22;58887;51.980;4.464;2022-10-23T07:45:03;14.94;83.94
71184;DHT22;58887;51.980;4.464;2022-10-23T07:47:30;14.88;84.10
71184;DHT22;58887;51.980;4.464;2022-10-23T07:49:57;14.98;83.93
71184;DHT22;58887;51.980;4.464;2022-10-23T07:52:22;14.94;83.89
71184;DHT22;58887;51.980;4.464;2022-10-23T07:54:51;14.94;83.84
71184;DHT22;58887;51.980;4.464;2022-10-23T07:57:17;14.90;84.06
71184;DHT22;58887;51.980;4.464;2022-10-23T07:59:43;14.97;83.99
71184;DHT22;58887;51.980;4.464;2022-10-23T08:02:10;15.01;83.75
71184;DHT22;58887;51.980;4.464;2022-10-23T08:04:36;15.01;83.92
71184;DHT22;58887;51.980;4.464;2022-10-23T08:07:02;15.11;83.47
71184;DHT22;58887;51.980;4.464;2022-10-23T08:09:27;15.21;83.23
71184;DHT22;58887;51.980;4.464;2022-10-23T08:11:53;15.14;83.43
71184;DHT22;58887;51.980;4.464;2022-10-23T08:14:18;15.12;83.33
71184;DHT22;58887;51.980;4.464;2022-10-23T08:16:44;15.14;83.33
71184;DHT22;58887;51.980;4.464;2022-10-23T08:19:10;15.20;83.10
71184;DHT22;58887;51.980;4.464;2022-10-23T08:21:36;15.25;83.10
71184;DHT22;58887;51.980;4.464;2022-10-23T08:24:02;15.15;83.32
71184;DHT22;58887;51.980;4.464;2022-10-23T08:26:27;15.20;83.27
71184;DHT22;58887;51.980;4.464;2022-10-23T08:28:54;15.20;83.30
71184;DHT22;58887;51.980;4.464;2022-10-23T08:31:21;15.18;83.30
71184;DHT22;58887;51.980;4.464;2022-10-23T08:33:47;15.23;83.29
71184;DHT22;58887;51.980;4.464;2022-10-23T08:36:19;15.24;83.12
71184;DHT22;58887;51.980;4.464;2022-10-23T08:38:46;15.21;83.40
71184;DHT22;58887;51.980;4.464;2022-10-23T08:43:52;15.39;83.09
71184;DHT22;58887;51.980;4.464;2022-10-23T08:46:25;15.36;82.97
71184;DHT22;58887;51.980;4.464;2022-10-23T08:49:06;15.46;82.88
71184;DHT22;58887;51.980;4.464;2022-10-23T08:51:38;15.45;82.72
71184;DHT22;58887;51.980;4.464;2022-10-23T08:54:14;15.58;82.52
71184;DHT22;58887;51.980;4.464;2022-10-23T08:56:53;15.70;82.11
71184;DHT22;58887;51.980;4.464;2022-10-23T08:59:35;15.75;81.71
71184;DHT22;58887;51.980;4.464;2022-10-23T09:04:33;15.75;81.96
71184;DHT22;58887;51.980;4.464;2022-10-23T09:07:03;15.72;82.13
71184;DHT22;58887;51.980;4.464;2022-10-23T09:12:44;15.86;81.68
71184;DHT22;58887;51.980;4.464;2022-10-23T09:17:44;15.87;81.65
71184;DHT22;58887;51.980;4.464;2022-10-23T09:20:23;15.92;81.82
71184;DHT22;58887;51.980;4.464;2022-10-23T09:23:03;15.97;81.66
71184;DHT22;58887;51.980;4.464;2022-10-23T09:25:35;16.06;81.49
71184;DHT22;58887;51.980;4.464;2022-10-23T09:28:01;16.07;81.35
71184;DHT22;58887;51.980;4.464;2022-10-23T09:33:14;16.04;81.53
71184;DHT22;58887;51.980;4.464;2022-10-23T09:36:01;16.14;81.44
71184;DHT22;58887;51.980;4.464;2022-10-23T09:38:32;16.12;81.55
71184;DHT22;58887;51.980;4.464;2022-10-23T09:41:03;16.13;81.63
71184;DHT22;58887;51.980;4.464;2022-10-23T09:43:30;16.07;81.71
71184;DHT22;58887;51.980;4.464;2022-10-23T09:46:06;16.13;81.55
71184;DHT22;58887;51.980;4.464;2022-10-23T09:48:33;16.06;81.71
71184;DHT22;58887;51.980;4.464;2022-10-23T09:51:02;16.07;81.89
71184;DHT22;58887;51.980;4.464;2022-10-23T09:53:34;16.12;81.73
71184;DHT22;58887;51.980;4.464;2022-10-23T09:56:19;16.07;81.75
71184;DHT22;58887;51.980;4.464;2022-10-23T10:01:24;16.23;81.56
71184;DHT22;58887;51.980;4.464;2022-10-23T10:03:51;16.28;81.30
71184;DHT22;58887;51.980;4.464;2022-10-23T10:06:27;16.31;81.37
71184;DHT22;58887;51.980;4.464;2022-10-23T10:08:56;16.33;81.09
71184;DHT22;58887;51.980;4.464;2022-10-23T10:11:29;16.38;80.88
71184;DHT22;58887;51.980;4.464;2022-10-23T10:26:10;16.54;80.29
71184;DHT22;58887;51.980;4.464;2022-10-23T10:36:28;16.83;79.36
71184;DHT22;58887;51.980;4.464;2022-10-23T10:39:02;16.69;79.59
71184;DHT22;58887;51.980;4.464;2022-10-23T10:41:31;16.76;79.81
71184;DHT22;58887;51.980;4.464;2022-10-23T10:46:55;17.08;78.79
71184;DHT22;58887;51.980;4.464;2022-10-23T10:49:38;17.06;78.53
71184;DHT22;58887;51.980;4.464;2022-10-23T10:52:21;17.16;77.98
71184;DHT22;58887;51.980;4.464;2022-10-23T10:57:32;17.33;77.85
71184;DHT22;58887;51.980;4.464;2022-10-23T11:00:04;17.43;77.54
71184;DHT22;58887;51.980;4.464;2022-10-23T11:02:38;17.51;77.24
71184;DHT22;58887;51.980;4.464;2022-10-23T11:05:21;17.50;77.21
71184;DHT22;58887;51.980;4.464;2022-10-23T11:10:26;17.77;76.14
71184;DHT22;58887;51.980;4.464;2022-10-23T11:12:51;18.04;76.07
71184;DHT22;58887;51.980;4.464;2022-10-23T11:15:24;18.00;75.74
71184;DHT22;58887;51.980;4.464;2022-10-23T11:17:58;18.28;75.16
71184;DHT22;58887;51.980;4.464;2022-10-23T11:28:36;19.00;72.29
71184;DHT22;58887;51.980;4.464;2022-10-23T11:36:56;18.60;73.47
71184;DHT22;58887;51.980;4.464;2022-10-23T11:39:31;18.43;73.87
71184;DHT22;58887;51.980;4.464;2022-10-23T11:47:24;18.66;73.83
71184;DHT22;58887;51.980;4.464;2022-10-23T11:49:51;18.56;74.13
71184;DHT22;58887;51.980;4.464;2022-10-23T11:52:27;18.50;74.19
71184;DHT22;58887;51.980;4.464;2022-10-23T11:55:16;18.50;74.20
71184;DHT22;58887;51.980;4.464;2022-10-23T11:57:44;18.60;73.82
71184;DHT22;58887;51.980;4.464;2022-10-23T12:00:22;18.60;73.64
71184;DHT22;58887;51.980;4.464;2022-10-23T12:02:52;18.83;73.35
71184;DHT22;58887;51.980;4.464;2022-10-23T12:05:35;19.04;72.74
71184;DHT22;58887;51.980;4.464;2022-10-23T12:08:07;18.91;72.71
71184;DHT22;58887;51.980;4.464;2022-10-23T12:10:47;18.98;72.32
71184;DHT22;58887;51.980;4.464;2022-10-23T12:16:01;19.36;71.77
71184;DHT22;58887;51.980;4.464;2022-10-23T12:18:27;19.51;71.38
71184;DHT22;58887;51.980;4.464;2022-10-23T12:20:56;19.61;71.10
71184;DHT22;58887;51.980;4.464;2022-10-23T12:29:50;19.75;69.57
71184;DHT22;58887;51.980;4.464;2022-10-23T12:32:44;19.70;69.99
71184;DHT22;58887;51.980;4.464;2022-10-23T12:35:53;19.76;70.11
71184;DHT22;58887;51.980;4.464;2022-10-23T12:38:29;20.03;69.91
71184;DHT22;58887;51.980;4.464;2022-10-23T12:43:37;19.87;69.93
71184;DHT22;58887;51.980;4.464;2022-10-23T12:46:30;19.76;69.71
71184;DHT22;58887;51.980;4.464;2022-10-23T12:48:57;19.85;70.00
71184;DHT22;58887;51.980;4.464;2022-10-23T12:51:33;19.96;69.77
71184;DHT22;58887;51.980;4.464;2022-10-23T12:54:01;20.13;69.57
71184;DHT22;58887;51.980;4.464;2022-10-23T12:56:34;20.47;68.65
71184;DHT22;58887;51.980;4.464;2022-10-23T12:59:00;20.74;67.55
71184;DHT22;58887;51.980;4.464;2022-10-23T13:01:29;20.63;67.38
71184;DHT22;58887;51.980;4.464;2022-10-23T13:03:58;20.30;68.14
71184;DHT22;58887;51.980;4.464;2022-10-23T13:06:26;20.55;68.26
71184;DHT22;58887;51.980;4.464;2022-10-23T13:08:52;20.57;68.06
71184;DHT22;58887;51.980;4.464;2022-10-23T13:11:20;20.61;67.78
71184;DHT22;58887;51.980;4.464;2022-10-23T13:13:46;20.63;67.88
71184;DHT22;58887;51.980;4.464;2022-10-23T13:16:19;20.58;67.32
71184;DHT22;58887;51.980;4.464;2022-10-23T13:18:45;20.85;67.10
71184;DHT22;58887;51.980;4.464;2022-10-23T13:21:23;20.55;67.71
71184;DHT22;58887;51.980;4.464;2022-10-23T13:23:50;20.84;67.37
71184;DHT22;58887;51.980;4.464;2022-10-23T13:26:21;20.64;67.69
71184;DHT22;58887;51.980;4.464;2022-10-23T13:28:48;20.84;67.26
71184;DHT22;58887;51.980;4.464;2022-10-23T13:38:41;20.84;67.11
71184;DHT22;58887;51.980;4.464;2022-10-23T13:41:18;20.96;67.43
71184;DHT22;58887;51.980;4.464;2022-10-23T13:43:45;21.23;66.92
71184;DHT22;58887;51.980;4.464;2022-10-23T13:46:13;21.27;66.36
71184;DHT22;58887;51.980;4.464;2022-10-23T13:48:41;21.60;66.26
71184;DHT22;58887;51.980;4.464;2022-10-23T13:51:19;21.49;65.42
71184;DHT22;58887;51.980;4.464;2022-10-23T13:53:45;21.44;65.88
71184;DHT22;58887;51.980;4.464;2022-10-23T13:56:12;21.46;66.49
71184;DHT22;58887;51.980;4.464;2022-10-23T13:58:38;21.33;66.39
71184;DHT22;58887;51.980;4.464;2022-10-23T14:01:05;21.35;66.40
71184;DHT22;58887;51.980;4.464;2022-10-23T14:03:31;21.09;66.80
71184;DHT22;58887;51.980;4.464;2022-10-23T14:05:59;20.99;67.44
71184;DHT22;58887;51.980;4.464;2022-10-23T14:08:25;20.94;67.75
71184;DHT22;58887;51.980;4.464;2022-10-23T14:10:51;20.88;67.97
71184;DHT22;58887;51.980;4.464;2022-10-23T14:13:19;20.88;67.86
71184;DHT22;58887;51.980;4.464;2022-10-23T14:15:52;20.84;68.30
71184;DHT22;58887;51.980;4.464;2022-10-23T14:18:18;21.15;67.55
71184;DHT22;58887;51.980;4.464;2022-10-23T14:20:44;21.29;66.38
71184;DHT22;58887;51.980;4.464;2022-10-23T14:23:10;21.39;67.49
71184;DHT22;58887;51.980;4.464;2022-10-23T14:25:35;21.22;66.94
71184;DHT22;58887;51.980;4.464;2022-10-23T14:28:01;21.09;67.38
71184;DHT22;58887;51.980;4.464;2022-10-23T14:30:26;20.92;67.48
71184;DHT22;58887;51.980;4.464;2022-10-23T14:32:52;20.65;68.61
71184;DHT22;58887;51.980;4.464;2022-10-23T14:35:18;20.58;68.69
71184;DHT22;58887;51.980;4.464;2022-10-23T14:37:43;20.51;69.17
71184;DHT22;58887;51.980;4.464;2022-10-23T14:40:12;20.34;69.46
71184;DHT22;58887;51.980;4.464;2022-10-23T14:42:37;20.30;69.81
71184;DHT22;58887;51.980;4.464;2022-10-23T14:45:03;20.10;69.98
71184;DHT22;58887;51.980;4.464;2022-10-23T14:47:29;20.06;70.10
71184;DHT22;58887;51.980;4.464;2022-10-23T14:49:55;19.99;70.53
71184;DHT22;58887;51.980;4.464;2022-10-23T14:52:21;19.89;70.83
71184;DHT22;58887;51.980;4.464;2022-10-23T14:54:47;19.85;71.00
71184;DHT22;58887;51.980;4.464;2022-10-23T14:57:13;19.66;71.62
71184;DHT22;58887;51.980;4.464;2022-10-23T14:59:41;19.65;71.62
71184;DHT22;58887;51.980;4.464;2022-10-23T15:02:09;19.65;71.92
71184;DHT22;58887;51.980;4.464;2022-10-23T15:04:36;19.61;72.23
71184;DHT22;58887;51.980;4.464;2022-10-23T15:07:01;19.61;71.99
71184;DHT22;58887;51.980;4.464;2022-10-23T15:09:27;19.52;72.20
71184;DHT22;58887;51.980;4.464;2022-10-23T15:11:52;19.47;72.48
71184;DHT22;58887;51.980;4.464;2022-10-23T15:14:18;19.51;72.32
71184;DHT22;58887;51.980;4.464;2022-10-23T15:16:44;19.41;72.63
71184;DHT22;58887;51.980;4.464;2022-10-23T15:19:12;19.35;72.58
71184;DHT22;58887;51.980;4.464;2022-10-23T15:21:37;19.48;72.54
71184;DHT22;58887;51.980;4.464;2022-10-23T15:24:03;19.41;73.07
71184;DHT22;58887;51.980;4.464;2022-10-23T15:26:29;19.44;72.71
71184;DHT22;58887;51.980;4.464;2022-10-23T15:29:00;19.34;72.91
71184;DHT22;58887;51.980;4.464;2022-10-23T15:33:58;19.36;73.19
71184;DHT22;58887;51.980;4.464;2022-10-23T15:36:25;19.32;73.07
71184;DHT22;58887;51.980;4.464;2022-10-23T15:38:51;19.36;73.17
71184;DHT22;58887;51.980;4.464;2022-10-23T15:41:27;19.27;73.21
71184;DHT22;58887;51.980;4.464;2022-10-23T15:43:53;19.25;73.58
71184;DHT22;58887;51.980;4.464;2022-10-23T15:46:18;19.35;73.17
71184;DHT22;58887;51.980;4.464;2022-10-23T15:48:44;19.29;73.28
71184;DHT22;58887;51.980;4.464;2022-10-23T15:51:09;19.22;73.51
71184;DHT22;58887;51.980;4.464;2022-10-23T15:53:34;19.21;73.65
71184;DHT22;58887;51.980;4.464;2022-10-23T15:56:00;19.35;73.29
71184;DHT22;58887;51.980;4.464;2022-10-23T15:58:26;19.32;73.39
71184;DHT22;58887;51.980;4.464;2022-10-23T16:00:51;19.32;73.09
71184;DHT22;58887;51.980;4.464;2022-10-23T16:03:17;19.32;73.27
71184;DHT22;58887;51.980;4.464;2022-10-23T16:05:42;19.34;73.22
71184;DHT22;58887;51.980;4.464;2022-10-23T16:08:08;19.31;73.01
71184;DHT22;58887;51.980;4.464;2022-10-23T16:10:38;19.35;72.93
71184;DHT22;58887;51.980;4.464;2022-10-23T16:13:03;19.34;72.96
71184;DHT22;58887;51.980;4.464;2022-10-23T16:15:29;19.29;72.95
71184;DHT22;58887;51.980;4.464;2022-10-23T16:17:54;19.34;73.13
71184;DHT22;58887;51.980;4.464;2022-10-23T16:20:19;19.19;73.46
71184;DHT22;58887;51.980;4.464;2022-10-23T16:22:45;19.27;73.27
71184;DHT22;58887;51.980;4.464;2022-10-23T16:25:11;19.36;72.94
71184;DHT22;58887;51.980;4.464;2022-10-23T16:27:36;19.21;73.16
71184;DHT22;58887;51.980;4.464;2022-10-23T16:30:02;19.19;73.25
71184;DHT22;58887;51.980;4.464;2022-10-23T16:32:30;19.24;73.19
71184;DHT22;58887;51.980;4.464;2022-10-23T16:34:56;19.24;73.18
71184;DHT22;58887;51.980;4.464;2022-10-23T16:37:21;19.12;73.45
71184;DHT22;58887;51.980;4.464;2022-10-23T16:39:46;19.07;73.41
71184;DHT22;58887;51.980;4.464;2022-10-23T16:42:12;19.15;73.33
71184;DHT22;58887;51.980;4.464;2022-10-23T16:44:37;19.10;73.47
71184;DHT22;58887;51.980;4.464;2022-10-23T16:47:03;19.00;73.71
71184;DHT22;58887;51.980;4.464;2022-10-23T16:49:28;18.93;73.78
71184;DHT22;58887;51.980;4.464;2022-10-23T16:51:55;18.90;73.98
71184;DHT22;58887;51.980;4.464;2022-10-23T16:54:20;18.98;73.67
71184;DHT22;58887;51.980;4.464;2022-10-23T16:56:46;18.98;73.80
71184;DHT22;58887;51.980;4.464;2022-10-23T16:59:12;18.98;73.82
71184;DHT22;58887;51.980;4.464;2022-10-23T17:01:38;19.08;73.66
71184;DHT22;58887;51.980;4.464;2022-10-23T17:04:05;19.00;73.67
71184;DHT22;58887;51.980;4.464;2022-10-23T17:06:31;19.12;73.51
71184;DHT22;58887;51.980;4.464;2022-10-23T17:08:58;19.07;73.54
71184;DHT22;58887;51.980;4.464;2022-10-23T17:11:27;19.17;73.39
71184;DHT22;58887;51.980;4.464;2022-10-23T17:14:10;19.08;73.63
71184;DHT22;58887;51.980;4.464;2022-10-23T17:16:42;19.07;73.96
71184;DHT22;58887;51.980;4.464;2022-10-23T17:19:10;19.03;74.04
71184;DHT22;58887;51.980;4.464;2022-10-23T17:21:38;19.08;73.97
71184;DHT22;58887;51.980;4.464;2022-10-23T17:24:04;19.06;73.95
71184;DHT22;58887;51.980;4.464;2022-10-23T17:26:30;19.03;74.07
71184;DHT22;58887;51.980;4.464;2022-10-23T17:28:56;19.14;73.89